sensor_id;sensor_type;location;lat;lon;timestamp;P1;durP1;ratioP1;P2;durP2;ratioP2
57593;SDS011;43423;46.510;6.686;2023-04-25T00:01:59;13.75;;;3.90;;
57593;SDS011;43423;46.510;6.686;2023-04-25T00:04:25;10.05;;;4.68;;
57593;SDS011;43423;46.510;6.686;2023-04-25T00:06:53;10.85;;;4.90;;
57593;SDS011;43423;46.510;6.686;2023-04-25T00:09:19;16.33;;;5.35;;
57593;SDS011;43423;46.510;6.686;2023-04-25T00:11:45;13.20;;;4.20;;
57593;SDS011;43423;46.510;6.686;2023-04-25T00:14:10;10.68;;;4.50;;
57593;SDS011;43423;46.510;6.686;2023-04-25T00:16:36;11.63;;;4.70;;
57593;SDS011;43423;46.510;6.686;2023-04-25T00:19:02;9.77;;;4.45;;
57593;SDS011;43423;46.510;6.686;2023-04-25T00:21:28;21.65;;;5.22;;
57593;SDS011;43423;46.510;6.686;2023-04-25T00:23:54;10.90;;;4.50;;
57593;SDS011;43423;46.510;6.686;2023-04-25T00:26:20;13.73;;;4.97;;
57593;SDS011;43423;46.510;6.686;2023-04-25T00:28:46;11.35;;;4.28;;
57593;SDS011;43423;46.510;6.686;2023-04-25T00:31:13;8.48;;;4.50;;
57593;SDS011;43423;46.510;6.686;2023-04-25T00:33:38;8.93;;;4.60;;
57593;SDS011;43423;46.510;6.686;2023-04-25T00:36:04;10.23;;;5.18;;
57593;SDS011;43423;46.510;6.686;2023-04-25T00:38:31;8.70;;;5.32;;
57593;SDS011;43423;46.510;6.686;2023-04-25T00:40:56;16.40;;;5.20;;
57593;SDS011;43423;46.510;6.686;2023-04-25T00:43:24;12.93;;;4.53;;
57593;SDS011;43423;46.510;6.686;2023-04-25T00:45:51;13.18;;;5.10;;
57593;SDS011;43423;46.510;6.686;2023-04-25T00:48:18;14.70;;;6.22;;
57593;SDS011;43423;46.510;6.686;2023-04-25T00:50:52;13.05;;;5.18;;
57593;SDS011;43423;46.510;6.686;2023-04-25T00:53:22;11.45;;;5.20;;
57593;SDS011;43423;46.510;6.686;2023-04-25T00:55:49;10.45;;;5.18;;
57593;SDS011;43423;46.510;6.686;2023-04-25T00:58:16;11.93;;;5.20;;
57593;SDS011;43423;46.510;6.686;2023-04-25T01:00:43;14.00;;;6.82;;
57593;SDS011;43423;46.510;6.686;2023-04-25T01:03:11;16.77;;;5.53;;
57593;SDS011;43423;46.510;6.686;2023-04-25T01:05:36;13.00;;;5.90;;
57593;SDS011;43423;46.510;6.686;2023-04-25T01:08:02;15.90;;;5.30;;
57593;SDS011;43423;46.510;6.686;2023-04-25T01:10:28;12.80;;;5.57;;
57593;SDS011;43423;46.510;6.686;2023-04-25T01:12:54;15.23;;;6.50;;
57593;SDS011;43423;46.510;6.686;2023-04-25T01:15:19;13.57;;;5.90;;
57593;SDS011;43423;46.510;6.686;2023-04-25T01:17:45;15.80;;;6.07;;
57593;SDS011;43423;46.510;6.686;2023-04-25T01:20:11;15.57;;;5.20;;
57593;SDS011;43423;46.510;6.686;2023-04-25T01:22:39;13.27;;;5.03;;
57593;SDS011;43423;46.510;6.686;2023-04-25T01:25:04;11.48;;;5.50;;
57593;SDS011;43423;46.510;6.686;2023-04-25T01:27:30;17.58;;;5.35;;
57593;SDS011;43423;46.510;6.686;2023-04-25T01:29:56;19.13;;;6.35;;
57593;SDS011;43423;46.510;6.686;2023-04-25T01:32:22;13.55;;;5.47;;
57593;SDS011;43423;46.510;6.686;2023-04-25T01:34:48;19.50;;;5.70;;
57593;SDS011;43423;46.510;6.686;2023-04-25T01:37:14;14.52;;;5.60;;
57593;SDS011;43423;46.510;6.686;2023-04-25T01:39:41;12.25;;;5.03;;
57593;SDS011;43423;46.510;6.686;2023-04-25T01:42:07;13.77;;;5.47;;
57593;SDS011;43423;46.510;6.686;2023-04-25T01:44:32;16.13;;;5.30;;
57593;SDS011;43423;46.510;6.686;2023-04-25T01:46:58;12.27;;;6.10;;
57593;SDS011;43423;46.510;6.686;2023-04-25T01:49:24;13.70;;;5.90;;
57593;SDS011;43423;46.510;6.686;2023-04-25T01:51:49;12.20;;;5.82;;
57593;SDS011;43423;46.510;6.686;2023-04-25T01:54:15;16.42;;;5.03;;
57593;SDS011;43423;46.510;6.686;2023-04-25T01:56:40;15.65;;;5.13;;
57593;SDS011;43423;46.510;6.686;2023-04-25T01:59:06;13.20;;;5.03;;
57593;SDS011;43423;46.510;6.686;2023-04-25T02:01:32;14.07;;;4.40;;
57593;SDS011;43423;46.510;6.686;2023-04-25T02:03:58;13.35;;;4.18;;
57593;SDS011;43423;46.510;6.686;2023-04-25T02:06:23;12.88;;;4.00;;
57593;SDS011;43423;46.510;6.686;2023-04-25T02:08:49;13.93;;;4.75;;
57593;SDS011;43423;46.510;6.686;2023-04-25T02:11:14;8.00;;;4.63;;
57593;SDS011;43423;46.510;6.686;2023-04-25T02:13:40;13.05;;;4.25;;
57593;SDS011;43423;46.510;6.686;2023-04-25T02:16:05;12.93;;;4.15;;
57593;SDS011;43423;46.510;6.686;2023-04-25T02:18:31;6.22;;;4.35;;
57593;SDS011;43423;46.510;6.686;2023-04-25T02:21:00;12.20;;;4.28;;
57593;SDS011;43423;46.510;6.686;2023-04-25T02:23:26;9.02;;;4.20;;
57593;SDS011;43423;46.510;6.686;2023-04-25T02:25:52;7.50;;;3.58;;
57593;SDS011;43423;46.510;6.686;2023-04-25T02:28:18;9.98;;;4.18;;
57593;SDS011;43423;46.510;6.686;2023-04-25T02:30:43;8.85;;;4.10;;
57593;SDS011;43423;46.510;6.686;2023-04-25T02:33:09;11.02;;;3.70;;
57593;SDS011;43423;46.510;6.686;2023-04-25T02:35:34;8.68;;;3.15;;
57593;SDS011;43423;46.510;6.686;2023-04-25T02:38:00;9.18;;;3.13;;
57593;SDS011;43423;46.510;6.686;2023-04-25T02:40:26;7.30;;;3.20;;
57593;SDS011;43423;46.510;6.686;2023-04-25T02:42:51;8.38;;;3.08;;
57593;SDS011;43423;46.510;6.686;2023-04-25T02:45:17;8.60;;;3.25;;
57593;SDS011;43423;46.510;6.686;2023-04-25T02:47:42;5.03;;;2.90;;
57593;SDS011;43423;46.510;6.686;2023-04-25T02:50:08;9.00;;;3.10;;
57593;SDS011;43423;46.510;6.686;2023-04-25T02:52:34;6.00;;;2.65;;
57593;SDS011;43423;46.510;6.686;2023-04-25T02:54:59;8.05;;;2.80;;
57593;SDS011;43423;46.510;6.686;2023-04-25T02:57:25;6.68;;;2.40;;
57593;SDS011;43423;46.510;6.686;2023-04-25T02:59:50;7.15;;;2.75;;
57593;SDS011;43423;46.510;6.686;2023-04-25T03:02:16;6.85;;;2.55;;
57593;SDS011;43423;46.510;6.686;2023-04-25T03:04:41;4.72;;;2.65;;
57593;SDS011;43423;46.510;6.686;2023-04-25T03:07:07;7.15;;;3.10;;
57593;SDS011;43423;46.510;6.686;2023-04-25T03:09:32;6.88;;;3.33;;
57593;SDS011;43423;46.510;6.686;2023-04-25T03:11:58;7.88;;;3.20;;
57593;SDS011;43423;46.510;6.686;2023-04-25T03:14:24;11.88;;;3.88;;
57593;SDS011;43423;46.510;6.686;2023-04-25T03:16:49;6.00;;;3.17;;
57593;SDS011;43423;46.510;6.686;2023-04-25T03:19:15;6.80;;;3.55;;
57593;SDS011;43423;46.510;6.686;2023-04-25T03:21:43;12.23;;;3.65;;
57593;SDS011;43423;46.510;6.686;2023-04-25T03:24:09;6.53;;;3.05;;
57593;SDS011;43423;46.510;6.686;2023-04-25T03:26:36;5.82;;;3.40;;
57593;SDS011;43423;46.510;6.686;2023-04-25T03:29:01;6.18;;;3.10;;
57593;SDS011;43423;46.510;6.686;2023-04-25T03:31:27;6.50;;;2.88;;
57593;SDS011;43423;46.510;6.686;2023-04-25T03:33:52;5.35;;;2.65;;
57593;SDS011;43423;46.510;6.686;2023-04-25T03:36:18;5.10;;;2.72;;
57593;SDS011;43423;46.510;6.686;2023-04-25T03:38:43;7.15;;;3.22;;
57593;SDS011;43423;46.510;6.686;2023-04-25T03:41:09;7.78;;;3.08;;
57593;SDS011;43423;46.510;6.686;2023-04-25T03:43:35;9.02;;;3.42;;
57593;SDS011;43423;46.510;6.686;2023-04-25T03:46:00;7.38;;;3.38;;
57593;SDS011;43423;46.510;6.686;2023-04-25T03:48:26;11.30;;;2.97;;
57593;SDS011;43423;46.510;6.686;2023-04-25T03:50:52;5.70;;;3.13;;
57593;SDS011;43423;46.510;6.686;2023-04-25T03:53:18;6.22;;;3.10;;
57593;SDS011;43423;46.510;6.686;2023-04-25T03:55:44;5.40;;;3.15;;
57593;SDS011;43423;46.510;6.686;2023-04-25T03:58:09;6.03;;;3.05;;
57593;SDS011;43423;46.510;6.686;2023-04-25T04:00:35;4.32;;;2.35;;
57593;SDS011;43423;46.510;6.686;2023-04-25T04:03:01;4.47;;;3.03;;
57593;SDS011;43423;46.510;6.686;2023-04-25T04:05:26;4.57;;;3.05;;
57593;SDS011;43423;46.510;6.686;2023-04-25T04:07:52;7.60;;;3.58;;
57593;SDS011;43423;46.510;6.686;2023-04-25T04:10:18;6.70;;;3.35;;
57593;SDS011;43423;46.510;6.686;2023-04-25T04:12:44;10.32;;;3.47;;
57593;SDS011;43423;46.510;6.686;2023-04-25T04:15:10;8.07;;;3.50;;
57593;SDS011;43423;46.510;6.686;2023-04-25T04:17:35;12.65;;;5.78;;
57593;SDS011;43423;46.510;6.686;2023-04-25T04:20:01;9.32;;;4.07;;
57593;SDS011;43423;46.510;6.686;2023-04-25T04:22:28;10.05;;;3.63;;
57593;SDS011;43423;46.510;6.686;2023-04-25T04:24:54;8.50;;;4.13;;
57593;SDS011;43423;46.510;6.686;2023-04-25T04:27:22;10.02;;;4.28;;
57593;SDS011;43423;46.510;6.686;2023-04-25T04:29:48;8.93;;;3.90;;
57593;SDS011;43423;46.510;6.686;2023-04-25T04:32:14;8.55;;;3.72;;
57593;SDS011;43423;46.510;6.686;2023-04-25T04:34:41;5.60;;;3.70;;
57593;SDS011;43423;46.510;6.686;2023-04-25T04:37:06;15.23;;;3.63;;
57593;SDS011;43423;46.510;6.686;2023-04-25T04:39:33;6.63;;;3.58;;
57593;SDS011;43423;46.510;6.686;2023-04-25T04:41:59;6.93;;;3.38;;
57593;SDS011;43423;46.510;6.686;2023-04-25T04:44:26;7.57;;;3.72;;
57593;SDS011;43423;46.510;6.686;2023-04-25T04:46:53;6.72;;;3.85;;
57593;SDS011;43423;46.510;6.686;2023-04-25T04:49:19;9.02;;;3.50;;
57593;SDS011;43423;46.510;6.686;2023-04-25T04:51:45;7.53;;;3.38;;
57593;SDS011;43423;46.510;6.686;2023-04-25T04:54:12;6.88;;;3.53;;
57593;SDS011;43423;46.510;6.686;2023-04-25T04:56:37;5.15;;;3.47;;
57593;SDS011;43423;46.510;6.686;2023-04-25T04:59:03;6.35;;;3.53;;
57593;SDS011;43423;46.510;6.686;2023-04-25T05:01:29;8.93;;;3.42;;
57593;SDS011;43423;46.510;6.686;2023-04-25T05:03:55;4.78;;;3.28;;
57593;SDS011;43423;46.510;6.686;2023-04-25T05:06:25;5.63;;;3.30;;
57593;SDS011;43423;46.510;6.686;2023-04-25T05:08:52;10.30;;;3.92;;
57593;SDS011;43423;46.510;6.686;2023-04-25T05:11:18;7.13;;;3.17;;
57593;SDS011;43423;46.510;6.686;2023-04-25T05:13:44;7.97;;;3.67;;
57593;SDS011;43423;46.510;6.686;2023-04-25T05:16:11;4.43;;;2.42;;
57593;SDS011;43423;46.510;6.686;2023-04-25T05:18:37;5.72;;;2.72;;
57593;SDS011;43423;46.510;6.686;2023-04-25T05:21:03;7.68;;;3.60;;
57593;SDS011;43423;46.510;6.686;2023-04-25T05:23:28;5.40;;;3.20;;
57593;SDS011;43423;46.510;6.686;2023-04-25T05:25:55;8.10;;;3.05;;
57593;SDS011;43423;46.510;6.686;2023-04-25T05:28:21;6.22;;;3.95;;
57593;SDS011;43423;46.510;6.686;2023-04-25T05:30:46;7.40;;;3.83;;
57593;SDS011;43423;46.510;6.686;2023-04-25T05:33:12;6.50;;;3.72;;
57593;SDS011;43423;46.510;6.686;2023-04-25T05:35:37;10.88;;;3.70;;
57593;SDS011;43423;46.510;6.686;2023-04-25T05:38:03;9.15;;;3.80;;
57593;SDS011;43423;46.510;6.686;2023-04-25T05:40:29;7.60;;;3.42;;
57593;SDS011;43423;46.510;6.686;2023-04-25T05:42:54;5.60;;;3.25;;
57593;SDS011;43423;46.510;6.686;2023-04-25T05:45:20;5.07;;;3.17;;
57593;SDS011;43423;46.510;6.686;2023-04-25T05:47:45;5.35;;;3.67;;
57593;SDS011;43423;46.510;6.686;2023-04-25T05:50:11;6.53;;;2.97;;
57593;SDS011;43423;46.510;6.686;2023-04-25T05:52:36;7.57;;;3.15;;
57593;SDS011;43423;46.510;6.686;2023-04-25T05:55:02;7.55;;;3.05;;
57593;SDS011;43423;46.510;6.686;2023-04-25T05:57:28;6.55;;;3.90;;
57593;SDS011;43423;46.510;6.686;2023-04-25T05:59:53;8.85;;;3.65;;
57593;SDS011;43423;46.510;6.686;2023-04-25T06:02:19;6.72;;;3.58;;
57593;SDS011;43423;46.510;6.686;2023-04-25T06:04:49;7.47;;;3.13;;
57593;SDS011;43423;46.510;6.686;2023-04-25T06:07:16;6.40;;;3.10;;
57593;SDS011;43423;46.510;6.686;2023-04-25T06:09:42;5.97;;;3.20;;
57593;SDS011;43423;46.510;6.686;2023-04-25T06:12:08;6.03;;;3.15;;
57593;SDS011;43423;46.510;6.686;2023-04-25T06:14:34;7.75;;;3.20;;
57593;SDS011;43423;46.510;6.686;2023-04-25T06:16:59;6.80;;;3.08;;
57593;SDS011;43423;46.510;6.686;2023-04-25T06:19:31;4.82;;;2.75;;
57593;SDS011;43423;46.510;6.686;2023-04-25T06:21:58;7.10;;;3.05;;
57593;SDS011;43423;46.510;6.686;2023-04-25T06:24:23;4.28;;;2.97;;
57593;SDS011;43423;46.510;6.686;2023-04-25T06:26:49;5.18;;;2.70;;
57593;SDS011;43423;46.510;6.686;2023-04-25T06:29:14;10.45;;;3.97;;
57593;SDS011;43423;46.510;6.686;2023-04-25T06:31:40;5.13;;;3.30;;
57593;SDS011;43423;46.510;6.686;2023-04-25T06:34:05;6.55;;;3.50;;
57593;SDS011;43423;46.510;6.686;2023-04-25T06:36:31;4.43;;;2.53;;
57593;SDS011;43423;46.510;6.686;2023-04-25T06:38:56;4.43;;;2.00;;
57593;SDS011;43423;46.510;6.686;2023-04-25T06:41:22;5.05;;;2.83;;
57593;SDS011;43423;46.510;6.686;2023-04-25T06:43:47;5.05;;;2.70;;
57593;SDS011;43423;46.510;6.686;2023-04-25T06:46:13;6.38;;;2.65;;
57593;SDS011;43423;46.510;6.686;2023-04-25T06:48:38;5.45;;;2.70;;
57593;SDS011;43423;46.510;6.686;2023-04-25T06:51:04;4.40;;;2.72;;
57593;SDS011;43423;46.510;6.686;2023-04-25T06:53:29;5.53;;;2.88;;
57593;SDS011;43423;46.510;6.686;2023-04-25T06:55:55;5.60;;;2.50;;
57593;SDS011;43423;46.510;6.686;2023-04-25T06:58:21;3.72;;;1.83;;
57593;SDS011;43423;46.510;6.686;2023-04-25T07:00:46;4.22;;;2.08;;
57593;SDS011;43423;46.510;6.686;2023-04-25T07:03:12;2.95;;;1.95;;
57593;SDS011;43423;46.510;6.686;2023-04-25T07:05:37;4.65;;;2.50;;
57593;SDS011;43423;46.510;6.686;2023-04-25T07:08:03;4.13;;;2.38;;
57593;SDS011;43423;46.510;6.686;2023-04-25T07:10:29;6.40;;;2.60;;
57593;SDS011;43423;46.510;6.686;2023-04-25T07:12:54;3.08;;;2.05;;
57593;SDS011;43423;46.510;6.686;2023-04-25T07:15:20;5.85;;;2.78;;
57593;SDS011;43423;46.510;6.686;2023-04-25T07:17:46;4.10;;;2.30;;
57593;SDS011;43423;46.510;6.686;2023-04-25T07:20:11;3.33;;;2.60;;
57593;SDS011;43423;46.510;6.686;2023-04-25T07:22:37;5.57;;;2.50;;
57593;SDS011;43423;46.510;6.686;2023-04-25T07:25:03;3.15;;;2.03;;
57593;SDS011;43423;46.510;6.686;2023-04-25T07:27:29;3.17;;;2.35;;
57593;SDS011;43423;46.510;6.686;2023-04-25T07:29:55;4.70;;;1.90;;
57593;SDS011;43423;46.510;6.686;2023-04-25T07:32:21;5.40;;;2.53;;
57593;SDS011;43423;46.510;6.686;2023-04-25T07:34:47;2.28;;;2.05;;
57593;SDS011;43423;46.510;6.686;2023-04-25T07:37:12;3.88;;;2.40;;
57593;SDS011;43423;46.510;6.686;2023-04-25T07:39:39;3.53;;;2.58;;
57593;SDS011;43423;46.510;6.686;2023-04-25T07:42:05;4.88;;;2.25;;
57593;SDS011;43423;46.510;6.686;2023-04-25T07:44:33;4.47;;;2.15;;
57593;SDS011;43423;46.510;6.686;2023-04-25T07:47:04;6.10;;;2.38;;
57593;SDS011;43423;46.510;6.686;2023-04-25T07:49:35;3.75;;;2.22;;
57593;SDS011;43423;46.510;6.686;2023-04-25T07:52:01;3.05;;;2.08;;
57593;SDS011;43423;46.510;6.686;2023-04-25T07:54:28;5.53;;;3.00;;
57593;SDS011;43423;46.510;6.686;2023-04-25T07:56:54;3.33;;;2.20;;
57593;SDS011;43423;46.510;6.686;2023-04-25T07:59:19;5.15;;;2.58;;
57593;SDS011;43423;46.510;6.686;2023-04-25T08:01:45;4.65;;;2.28;;
57593;SDS011;43423;46.510;6.686;2023-04-25T08:04:11;3.88;;;2.40;;
57593;SDS011;43423;46.510;6.686;2023-04-25T08:06:36;3.42;;;2.15;;
57593;SDS011;43423;46.510;6.686;2023-04-25T08:09:02;3.08;;;2.25;;
57593;SDS011;43423;46.510;6.686;2023-04-25T08:11:28;5.32;;;2.10;;
57593;SDS011;43423;46.510;6.686;2023-04-25T08:13:54;6.75;;;2.72;;
57593;SDS011;43423;46.510;6.686;2023-04-25T08:16:19;7.53;;;2.47;;
57593;SDS011;43423;46.510;6.686;2023-04-25T08:18:45;4.22;;;2.40;;
57593;SDS011;43423;46.510;6.686;2023-04-25T08:21:10;4.55;;;2.28;;
57593;SDS011;43423;46.510;6.686;2023-04-25T08:23:38;3.20;;;2.40;;
57593;SDS011;43423;46.510;6.686;2023-04-25T08:26:03;11.05;;;3.78;;
57593;SDS011;43423;46.510;6.686;2023-04-25T08:28:30;8.55;;;2.72;;
57593;SDS011;43423;46.510;6.686;2023-04-25T08:30:56;6.38;;;3.13;;
57593;SDS011;43423;46.510;6.686;2023-04-25T08:33:22;4.95;;;2.10;;
57593;SDS011;43423;46.510;6.686;2023-04-25T08:35:48;5.88;;;3.08;;
57593;SDS011;43423;46.510;6.686;2023-04-25T08:38:13;6.32;;;2.90;;
57593;SDS011;43423;46.510;6.686;2023-04-25T08:40:39;5.03;;;3.45;;
57593;SDS011;43423;46.510;6.686;2023-04-25T08:43:06;6.88;;;3.20;;
57593;SDS011;43423;46.510;6.686;2023-04-25T08:45:38;4.85;;;3.53;;
57593;SDS011;43423;46.510;6.686;2023-04-25T08:48:07;7.25;;;3.58;;
57593;SDS011;43423;46.510;6.686;2023-04-25T08:50:38;6.93;;;3.10;;
57593;SDS011;43423;46.510;6.686;2023-04-25T08:53:05;7.10;;;3.38;;
57593;SDS011;43423;46.510;6.686;2023-04-25T08:55:35;5.57;;;3.00;;
57593;SDS011;43423;46.510;6.686;2023-04-25T08:58:04;8.75;;;3.40;;
57593;SDS011;43423;46.510;6.686;2023-04-25T09:00:30;6.80;;;3.25;;
57593;SDS011;43423;46.510;6.686;2023-04-25T09:02:56;7.30;;;3.22;;
57593;SDS011;43423;46.510;6.686;2023-04-25T09:05:23;7.78;;;3.63;;
57593;SDS011;43423;46.510;6.686;2023-04-25T09:07:49;8.68;;;3.45;;
57593;SDS011;43423;46.510;6.686;2023-04-25T09:10:15;6.28;;;3.88;;
57593;SDS011;43423;46.510;6.686;2023-04-25T09:12:41;8.65;;;3.90;;
57593;SDS011;43423;46.510;6.686;2023-04-25T09:15:07;10.60;;;3.90;;
57593;SDS011;43423;46.510;6.686;2023-04-25T09:17:36;7.80;;;3.97;;
57593;SDS011;43423;46.510;6.686;2023-04-25T09:20:09;17.67;;;4.07;;
57593;SDS011;43423;46.510;6.686;2023-04-25T09:22:36;10.80;;;4.38;;
57593;SDS011;43423;46.510;6.686;2023-04-25T09:25:09;7.97;;;4.32;;
57593;SDS011;43423;46.510;6.686;2023-04-25T09:27:36;7.40;;;4.95;;
57593;SDS011;43423;46.510;6.686;2023-04-25T09:30:01;4.03;;;2.70;;
57593;SDS011;43423;46.510;6.686;2023-04-25T09:32:28;4.60;;;2.25;;
57593;SDS011;43423;46.510;6.686;2023-04-25T09:34:57;3.20;;;2.22;;
57593;SDS011;43423;46.510;6.686;2023-04-25T09:37:23;3.38;;;1.98;;
57593;SDS011;43423;46.510;6.686;2023-04-25T09:39:51;5.70;;;1.95;;
57593;SDS011;43423;46.510;6.686;2023-04-25T09:42:21;4.40;;;2.20;;
57593;SDS011;43423;46.510;6.686;2023-04-25T09:47:19;2.67;;;1.90;;
57593;SDS011;43423;46.510;6.686;2023-04-25T09:49:48;4.00;;;1.90;;
57593;SDS011;43423;46.510;6.686;2023-04-25T09:52:15;4.10;;;1.55;;
57593;SDS011;43423;46.510;6.686;2023-04-25T09:54:42;2.90;;;1.30;;
57593;SDS011;43423;46.510;6.686;2023-04-25T09:57:27;2.55;;;1.70;;
57593;SDS011;43423;46.510;6.686;2023-04-25T09:59:53;1.63;;;1.20;;
57593;SDS011;43423;46.510;6.686;2023-04-25T10:02:24;4.57;;;1.20;;
57593;SDS011;43423;46.510;6.686;2023-04-25T10:04:51;2.28;;;1.20;;
57593;SDS011;43423;46.510;6.686;2023-04-25T10:07:23;3.85;;;1.50;;
57593;SDS011;43423;46.510;6.686;2023-04-25T10:09:52;11.40;;;2.28;;
57593;SDS011;43423;46.510;6.686;2023-04-25T10:12:24;3.13;;;1.58;;
57593;SDS011;43423;46.510;6.686;2023-04-25T10:14:51;3.10;;;1.70;;
57593;SDS011;43423;46.510;6.686;2023-04-25T10:17:17;2.88;;;1.92;;
57593;SDS011;43423;46.510;6.686;2023-04-25T10:19:45;4.72;;;1.70;;
57593;SDS011;43423;46.510;6.686;2023-04-25T10:22:20;5.78;;;1.92;;
57593;SDS011;43423;46.510;6.686;2023-04-25T10:24:54;4.75;;;1.92;;
57593;SDS011;43423;46.510;6.686;2023-04-25T10:27:21;3.60;;;1.60;;
57593;SDS011;43423;46.510;6.686;2023-04-25T10:29:59;2.28;;;1.65;;
57593;SDS011;43423;46.510;6.686;2023-04-25T10:32:27;2.03;;;1.30;;
57593;SDS011;43423;46.510;6.686;2023-04-25T10:34:53;4.35;;;1.60;;
57593;SDS011;43423;46.510;6.686;2023-04-25T10:37:19;1.52;;;1.20;;
57593;SDS011;43423;46.510;6.686;2023-04-25T10:39:44;2.15;;;1.10;;
57593;SDS011;43423;46.510;6.686;2023-04-25T10:42:12;3.85;;;1.15;;
57593;SDS011;43423;46.510;6.686;2023-04-25T10:44:37;6.07;;;1.30;;
57593;SDS011;43423;46.510;6.686;2023-04-25T10:47:06;1.50;;;1.38;;
57593;SDS011;43423;46.510;6.686;2023-04-25T10:49:36;1.20;;;1.10;;
57593;SDS011;43423;46.510;6.686;2023-04-25T10:52:13;2.22;;;1.00;;
57593;SDS011;43423;46.510;6.686;2023-04-25T10:54:47;1.70;;;1.02;;
57593;SDS011;43423;46.510;6.686;2023-04-25T10:57:36;3.22;;;1.10;;
57593;SDS011;43423;46.510;6.686;2023-04-25T11:02:37;3.60;;;0.93;;
57593;SDS011;43423;46.510;6.686;2023-04-25T11:05:10;1.92;;;1.02;;
57593;SDS011;43423;46.510;6.686;2023-04-25T11:10:08;4.50;;;1.00;;
57593;SDS011;43423;46.510;6.686;2023-04-25T11:12:34;3.13;;;1.08;;
57593;SDS011;43423;46.510;6.686;2023-04-25T11:15:03;2.30;;;1.17;;
57593;SDS011;43423;46.510;6.686;2023-04-25T11:17:31;2.38;;;1.02;;
57593;SDS011;43423;46.510;6.686;2023-04-25T11:19:57;1.38;;;1.27;;
57593;SDS011;43423;46.510;6.686;2023-04-25T11:22:23;4.15;;;1.40;;
57593;SDS011;43423;46.510;6.686;2023-04-25T11:24:48;1.35;;;1.10;;
57593;SDS011;43423;46.510;6.686;2023-04-25T11:27:14;6.00;;;1.40;;
57593;SDS011;43423;46.510;6.686;2023-04-25T11:29:40;4.22;;;2.17;;
57593;SDS011;43423;46.510;6.686;2023-04-25T11:32:06;2.67;;;1.38;;
57593;SDS011;43423;46.510;6.686;2023-04-25T11:34:32;2.63;;;1.42;;
57593;SDS011;43423;46.510;6.686;2023-04-25T11:36:59;1.40;;;1.27;;
57593;SDS011;43423;46.510;6.686;2023-04-25T11:39:25;2.58;;;1.70;;
57593;SDS011;43423;46.510;6.686;2023-04-25T11:41:52;3.72;;;1.30;;
57593;SDS011;43423;46.510;6.686;2023-04-25T11:44:18;3.00;;;1.10;;
57593;SDS011;43423;46.510;6.686;2023-04-25T11:46:45;2.47;;;1.00;;
57593;SDS011;43423;46.510;6.686;2023-04-25T11:49:11;3.22;;;1.30;;
57593;SDS011;43423;46.510;6.686;2023-04-25T11:51:38;1.10;;;1.00;;
57593;SDS011;43423;46.510;6.686;2023-04-25T11:54:05;2.15;;;1.17;;
57593;SDS011;43423;46.510;6.686;2023-04-25T11:56:31;2.72;;;2.00;;
57593;SDS011;43423;46.510;6.686;2023-04-25T11:59:04;2.83;;;1.00;;
57593;SDS011;43423;46.510;6.686;2023-04-25T12:01:32;1.75;;;1.10;;
57593;SDS011;43423;46.510;6.686;2023-04-25T12:03:58;1.90;;;1.10;;
57593;SDS011;43423;46.510;6.686;2023-04-25T12:06:55;2.65;;;1.30;;
57593;SDS011;43423;46.510;6.686;2023-04-25T12:09:31;5.13;;;1.50;;
57593;SDS011;43423;46.510;6.686;2023-04-25T12:11:58;3.20;;;1.33;;
57593;SDS011;43423;46.510;6.686;2023-04-25T12:14:28;6.77;;;2.10;;
57593;SDS011;43423;46.510;6.686;2023-04-25T12:16:58;3.22;;;1.52;;
57593;SDS011;43423;46.510;6.686;2023-04-25T12:19:26;5.45;;;1.40;;
57593;SDS011;43423;46.510;6.686;2023-04-25T12:21:56;5.03;;;1.77;;
57593;SDS011;43423;46.510;6.686;2023-04-25T12:24:23;1.95;;;1.27;;
57593;SDS011;43423;46.510;6.686;2023-04-25T12:26:52;1.55;;;1.00;;
57593;SDS011;43423;46.510;6.686;2023-04-25T12:29:20;1.23;;;1.13;;
57593;SDS011;43423;46.510;6.686;2023-04-25T12:31:48;4.15;;;1.35;;
57593;SDS011;43423;46.510;6.686;2023-04-25T12:34:14;1.83;;;1.10;;
57593;SDS011;43423;46.510;6.686;2023-04-25T12:36:40;2.58;;;1.33;;
57593;SDS011;43423;46.510;6.686;2023-04-25T12:39:05;2.35;;;1.27;;
57593;SDS011;43423;46.510;6.686;2023-04-25T12:41:32;2.25;;;1.13;;
57593;SDS011;43423;46.510;6.686;2023-04-25T12:43:58;2.05;;;1.67;;
57593;SDS011;43423;46.510;6.686;2023-04-25T12:46:23;4.43;;;1.50;;
57593;SDS011;43423;46.510;6.686;2023-04-25T12:48:49;1.95;;;1.55;;
57593;SDS011;43423;46.510;6.686;2023-04-25T12:51:15;2.60;;;1.27;;
57593;SDS011;43423;46.510;6.686;2023-04-25T12:53:40;2.10;;;1.30;;
57593;SDS011;43423;46.510;6.686;2023-04-25T12:56:07;4.22;;;1.35;;
57593;SDS011;43423;46.510;6.686;2023-04-25T12:58:33;1.95;;;1.10;;
57593;SDS011;43423;46.510;6.686;2023-04-25T13:00:59;4.43;;;1.35;;
57593;SDS011;43423;46.510;6.686;2023-04-25T13:03:25;1.75;;;1.13;;
57593;SDS011;43423;46.510;6.686;2023-04-25T13:05:51;1.95;;;1.15;;
57593;SDS011;43423;46.510;6.686;2023-04-25T13:08:20;2.22;;;1.20;;
57593;SDS011;43423;46.510;6.686;2023-04-25T13:10:47;3.95;;;1.50;;
57593;SDS011;43423;46.510;6.686;2023-04-25T13:13:12;2.78;;;1.45;;
57593;SDS011;43423;46.510;6.686;2023-04-25T13:15:38;1.10;;;1.00;;
57593;SDS011;43423;46.510;6.686;2023-04-25T13:18:04;2.95;;;1.13;;
57593;SDS011;43423;46.510;6.686;2023-04-25T13:20:33;3.25;;;1.25;;
57593;SDS011;43423;46.510;6.686;2023-04-25T13:22:58;2.15;;;1.30;;
57593;SDS011;43423;46.510;6.686;2023-04-25T13:25:24;1.95;;;1.13;;
57593;SDS011;43423;46.510;6.686;2023-04-25T13:27:50;1.40;;;1.30;;
57593;SDS011;43423;46.510;6.686;2023-04-25T13:30:16;1.92;;;1.25;;
57593;SDS011;43423;46.510;6.686;2023-04-25T13:32:42;3.08;;;1.48;;
57593;SDS011;43423;46.510;6.686;2023-04-25T13:35:09;1.77;;;1.33;;
57593;SDS011;43423;46.510;6.686;2023-04-25T13:37:37;4.43;;;1.25;;
57593;SDS011;43423;46.510;6.686;2023-04-25T13:40:04;5.25;;;1.95;;
57593;SDS011;43423;46.510;6.686;2023-04-25T13:42:31;5.00;;;1.38;;
57593;SDS011;43423;46.510;6.686;2023-04-25T13:44:57;2.10;;;1.33;;
57593;SDS011;43423;46.510;6.686;2023-04-25T13:47:23;2.00;;;1.20;;
57593;SDS011;43423;46.510;6.686;2023-04-25T13:49:49;3.05;;;1.55;;
57593;SDS011;43423;46.510;6.686;2023-04-25T13:52:15;1.48;;;1.02;;
57593;SDS011;43423;46.510;6.686;2023-04-25T13:54:41;1.55;;;1.40;;
57593;SDS011;43423;46.510;6.686;2023-04-25T13:57:06;1.85;;;1.27;;
57593;SDS011;43423;46.510;6.686;2023-04-25T13:59:32;4.32;;;1.52;;
57593;SDS011;43423;46.510;6.686;2023-04-25T14:01:58;8.57;;;1.70;;
57593;SDS011;43423;46.510;6.686;2023-04-25T14:04:24;3.75;;;1.33;;
57593;SDS011;43423;46.510;6.686;2023-04-25T14:06:50;4.00;;;1.40;;
57593;SDS011;43423;46.510;6.686;2023-04-25T14:09:16;3.42;;;1.40;;
57593;SDS011;43423;46.510;6.686;2023-04-25T14:11:42;2.45;;;1.40;;
57593;SDS011;43423;46.510;6.686;2023-04-25T14:14:08;3.70;;;1.40;;
57593;SDS011;43423;46.510;6.686;2023-04-25T14:16:34;1.33;;;1.23;;
57593;SDS011;43423;46.510;6.686;2023-04-25T14:19:00;6.50;;;1.63;;
57593;SDS011;43423;46.510;6.686;2023-04-25T14:21:26;6.38;;;1.80;;
57593;SDS011;43423;46.510;6.686;2023-04-25T14:23:52;2.67;;;1.40;;
57593;SDS011;43423;46.510;6.686;2023-04-25T14:26:17;2.05;;;1.25;;
57593;SDS011;43423;46.510;6.686;2023-04-25T14:28:43;2.30;;;1.20;;
57593;SDS011;43423;46.510;6.686;2023-04-25T14:31:09;4.22;;;1.63;;
57593;SDS011;43423;46.510;6.686;2023-04-25T14:33:35;3.97;;;2.08;;
57593;SDS011;43423;46.510;6.686;2023-04-25T14:36:02;2.97;;;1.17;;
57593;SDS011;43423;46.510;6.686;2023-04-25T14:38:28;1.48;;;1.25;;
57593;SDS011;43423;46.510;6.686;2023-04-25T14:40:54;3.60;;;1.55;;
57593;SDS011;43423;46.510;6.686;2023-04-25T14:43:19;1.88;;;1.42;;
57593;SDS011;43423;46.510;6.686;2023-04-25T14:45:45;1.60;;;1.45;;
57593;SDS011;43423;46.510;6.686;2023-04-25T14:48:10;3.83;;;1.30;;
57593;SDS011;43423;46.510;6.686;2023-04-25T14:50:36;1.95;;;1.50;;